Time;durP1;ratioP1;P1;durP2;ratioP2;P2;SDS_P1;SDS_P2;PMS_P1;PMS_P2;Temp;Humidity;BMP_temperature;BMP_pressure;BME280_temperature;BME280_humidity;BME280_pressure;Samples;Min_cycle;Max_cycle;Signal;HPM_P1;HPM_P2
2022/07/14 00:01:01;;;;;;;15.07;2.87;;;19.60;91.20;;;;;;5032256;28;20041;-74
2022/07/14 00:03:28;;;;;;;13.70;2.40;;;19.60;91.30;;;;;;5032166;28;20099;-75
2022/07/14 00:05:54;;;;;;;14.52;2.78;;;19.50;91.60;;;;;;5032330;28;20103;-74
2022/07/14 00:08:19;;;;;;;16.13;2.00;;;19.40;91.70;;;;;;5032193;28;20025;-75
2022/07/14 00:10:45;;;;;;;15.70;2.90;;;19.50;91.70;;;;;;5032795;28;20025;-74
2022/07/14 00:13:11;;;;;;;16.17;3.10;;;19.50;91.70;;;;;;5032512;28;20033;-74
2022/07/14 00:15:37;;;;;;;16.42;3.00;;;19.50;91.70;;;;;;5032234;28;20025;-74
2022/07/14 00:18:03;;;;;;;11.50;2.22;;;19.40;91.80;;;;;;5032036;28;20029;-74
2022/07/14 00:20:29;;;;;;;11.95;2.60;;;19.40;92.00;;;;;;5031704;28;20040;-75
2022/07/14 00:22:58;;;;;;;15.27;2.22;;;19.20;92.30;;;;;;5032377;28;20029;-74
2022/07/14 00:25:25;;;;;;;19.60;3.05;;;19.10;92.40;;;;;;5031787;28;20520;-74
2022/07/14 00:27:51;;;;;;;11.57;2.33;;;19.10;92.70;;;;;;5031768;28;20037;-74
2022/07/14 00:30:17;;;;;;;16.75;2.65;;;19.10;92.70;;;;;;5031964;28;20022;-74
2022/07/14 00:32:43;;;;;;;13.50;2.10;;;19.10;92.70;;;;;;5031816;28;20041;-73
2022/07/14 00:35:09;;;;;;;14.70;2.50;;;19.20;92.80;;;;;;5032053;28;20032;-73
2022/07/14 00:37:35;;;;;;;21.23;3.20;;;19.10;92.80;;;;;;5030516;28;20125;-72
2022/07/14 00:40:04;;;;;;;20.83;4.32;;;19.10;92.90;;;;;;5031265;28;20116;-75
2022/07/14 00:42:37;;;;;;;20.90;2.88;;;19.00;93.10;;;;;;5031520;28;20049;-73
2022/07/14 00:45:10;;;;;;;12.43;2.35;;;19.10;93.40;;;;;;5031478;28;20112;-74
2022/07/14 00:47:37;;;;;;;20.25;3.22;;;19.10;93.00;;;;;;5031296;28;20030;-75
2022/07/14 00:50:05;;;;;;;21.55;3.13;;;18.90;93.40;;;;;;5032119;28;20029;-75
2022/07/14 00:52:33;;;;;;;17.73;3.10;;;18.90;93.40;;;;;;5031851;28;20489;-75
2022/07/14 00:54:59;;;;;;;19.00;2.90;;;19.00;93.30;;;;;;5030779;28;20145;-75
2022/07/14 00:57:25;;;;;;;13.07;2.95;;;19.00;93.40;;;;;;5030086;28;20411;-74
2022/07/14 00:59:51;;;;;;;18.02;2.47;;;18.90;93.40;;;;;;5029886;28;20071;-73
2022/07/14 01:02:18;;;;;;;17.42;2.67;;;19.00;93.40;;;;;;5030583;28;20025;-73
2022/07/14 01:04:45;;;;;;;17.77;3.25;;;18.90;93.50;;;;;;5031534;28;20029;-74
2022/07/14 01:07:12;;;;;;;18.50;3.60;;;18.90;93.50;;;;;;5031119;28;20053;-74
2022/07/14 01:09:39;;;;;;;20.23;3.00;;;18.80;93.50;;;;;;5030911;28;20040;-75
2022/07/14 01:12:05;;;;;;;18.92;2.63;;;18.80;93.70;;;;;;5030927;28;20040;-75
2022/07/14 01:14:30;;;;;;;16.85;2.20;;;18.80;93.60;;;;;;5029769;28;20108;-73
2022/07/14 01:16:57;;;;;;;18.05;2.58;;;18.80;93.50;;;;;;5030164;28;20026;-74
2022/07/14 01:19:24;;;;;;;16.77;2.97;;;18.80;93.70;;;;;;5029664;28;20052;-72
2022/07/14 01:21:54;;;;;;;11.82;2.25;;;18.80;93.60;;;;;;5031083;28;20126;-74
2022/07/14 01:24:21;;;;;;;18.10;2.75;;;18.70;93.50;;;;;;5030836;28;20065;-74
2022/07/14 01:26:47;;;;;;;21.98;3.20;;;18.70;93.60;;;;;;5030582;28;20064;-75
2022/07/14 01:29:13;;;;;;;12.85;2.33;;;18.60;93.70;;;;;;5029686;28;20057;-74
2022/07/14 01:31:42;;;;;;;12.63;2.53;;;18.60;93.80;;;;;;5031069;28;20048;-74
2022/07/14 01:34:08;;;;;;;17.75;2.90;;;18.50;93.80;;;;;;5030502;28;20076;-74
2022/07/14 01:36:35;;;;;;;18.50;2.47;;;18.60;93.90;;;;;;5016049;28;20030;-73
2022/07/14 01:39:02;;;;;;;18.23;3.00;;;18.50;94.20;;;;;;5009618;28;20049;-73
2022/07/14 01:41:27;;;;;;;14.57;2.75;;;18.50;94.00;;;;;;5010752;28;20429;-73
2022/07/14 01:43:54;;;;;;;19.85;3.50;;;18.40;94.10;;;;;;5011252;28;20030;-74
2022/07/14 01:46:21;;;;;;;15.18;2.53;;;18.50;94.00;;;;;;5011050;28;20034;-74
2022/07/14 01:48:47;;;;;;;14.10;2.67;;;18.50;94.00;;;;;;5010709;28;20510;-74
2022/07/14 01:51:13;;;;;;;10.23;2.75;;;18.50;93.90;;;;;;5010829;28;20488;-73
2022/07/14 01:53:41;;;;;;;11.40;2.33;;;18.60;94.00;;;;;;5010722;28;20072;-73
2022/07/14 01:56:11;;;;;;;13.48;2.28;;;18.50;94.00;;;;;;5011155;28;20038;-75
2022/07/14 01:58:37;;;;;;;16.10;3.20;;;18.50;94.10;;;;;;5010787;28;20417;-74
2022/07/14 02:03:56;;;;;;;14.63;3.10;;;18.40;94.30;;;;;;5010495;28;20304;-73
2022/07/14 02:06:22;;;;;;;22.38;2.92;;;18.30;94.40;;;;;;5010789;28;20066;-74
2022/07/14 02:08:47;;;;;;;15.95;2.72;;;18.30;94.50;;;;;;5014168;28;20443;-74
2022/07/14 02:14:14;;;;;;;14.02;2.97;;;18.20;94.90;;;;;;5011878;28;20384;-75
2022/07/14 02:16:40;;;;;;;12.40;2.45;;;18.20;94.70;;;;;;5014543;28;20027;-75
2022/07/14 02:19:07;;;;;;;16.23;3.00;;;18.30;94.70;;;;;;5014388;28;20411;-74
2022/07/14 02:21:32;;;;;;;11.93;2.65;;;18.20;94.80;;;;;;5014426;28;20038;-74
2022/07/14 02:23:58;;;;;;;15.18;3.20;;;18.10;94.90;;;;;;5013273;28;20115;-75
2022/07/14 02:26:24;;;;;;;16.08;3.78;;;18.00;95.20;;;;;;5013229;28;20061;-76
2022/07/14 02:28:50;;;;;;;15.80;3.33;;;18.00;95.00;;;;;;5015262;28;20022;-75
2022/07/14 02:31:17;;;;;;;20.77;2.80;;;18.10;94.90;;;;;;5014163;28;20092;-75
2022/07/14 02:33:43;;;;;;;15.07;3.85;;;18.10;94.80;;;;;;5013661;28;20419;-74
2022/07/14 02:36:08;;;;;;;12.75;2.30;;;18.10;95.10;;;;;;5014015;28;20034;-73
2022/07/14 02:38:34;;;;;;;17.15;3.75;;;18.10;95.00;;;;;;5013930;28;20494;-74
2022/07/14 02:41:00;;;;;;;11.77;2.15;;;18.20;94.90;;;;;;5014490;28;20081;-73
2022/07/14 02:43:26;;;;;;;17.52;2.78;;;18.10;94.90;;;;;;5013760;28;20092;-74
2022/07/14 02:45:52;;;;;;;14.90;2.28;;;18.10;94.90;;;;;;5013821;28;20026;-75
2022/07/14 02:48:18;;;;;;;12.10;2.30;;;18.10;95.20;;;;;;5013824;28;20029;-74
2022/07/14 02:50:44;;;;;;;14.55;2.45;;;18.00;95.30;;;;;;5013863;28;20049;-75
2022/07/14 02:53:09;;;;;;;13.82;2.63;;;18.00;95.30;;;;;;5013328;28;20041;-73
2022/07/14 02:55:36;;;;;;;20.55;2.97;;;18.00;95.00;;;;;;5012754;28;20046;-74
2022/07/14 02:58:03;;;;;;;20.77;2.45;;;18.00;95.30;;;;;;5012801;28;20042;-74
2022/07/14 03:00:30;;;;;;;18.58;3.22;;;17.90;95.20;;;;;;5013783;28;20349;-74
2022/07/14 03:02:57;;;;;;;9.27;2.58;;;18.00;95.20;;;;;;5013732;28;20030;-75
2022/07/14 03:05:23;;;;;;;14.52;2.80;;;18.00;95.30;;;;;;5013605;28;20411;-74
2022/07/14 03:07:49;;;;;;;14.48;3.17;;;18.00;95.30;;;;;;5013923;28;20033;-74
2022/07/14 03:10:14;;;;;;;13.48;2.38;;;18.00;95.10;;;;;;5013565;28;20040;-74
2022/07/14 03:12:40;;;;;;;22.02;2.80;;;17.90;95.30;;;;;;5013488;28;20059;-75
2022/07/14 03:15:09;;;;;;;20.20;3.00;;;17.90;95.50;;;;;;5013428;28;20034;-75
2022/07/14 03:17:34;;;;;;;14.63;2.70;;;17.80;95.50;;;;;;5012777;28;20485;-75
2022/07/14 03:20:00;;;;;;;20.33;2.75;;;17.80;95.50;;;;;;5013696;28;20339;-74
2022/07/14 03:22:27;;;;;;;16.90;3.10;;;17.90;95.10;;;;;;5013248;28;20041;-74
2022/07/14 03:24:53;;;;;;;17.90;2.90;;;17.80;95.30;;;;;;5012934;28;20531;-74
2022/07/14 03:27:19;;;;;;;20.63;3.08;;;17.70;95.20;;;;;;5011904;28;20045;-74
2022/07/14 03:29:44;;;;;;;15.90;2.67;;;17.80;95.60;;;;;;5011784;28;20080;-73
2022/07/14 03:32:10;;;;;;;18.45;2.70;;;17.80;95.40;;;;;;5013505;28;20030;-73
2022/07/14 03:34:36;;;;;;;15.27;2.78;;;17.80;95.30;;;;;;5013471;28;20049;-75
2022/07/14 03:37:02;;;;;;;14.18;2.47;;;17.70;95.60;;;;;;5013008;28;20025;-74
2022/07/14 03:39:28;;;;;;;10.45;2.22;;;17.70;95.20;;;;;;5012713;28;20042;-75
2022/07/14 03:41:53;;;;;;;17.58;2.75;;;17.70;95.30;;;;;;5012993;28;20108;-74
2022/07/14 03:44:19;;;;;;;8.13;2.50;;;17.60;95.50;;;;;;5012744;28;20022;-74
2022/07/14 03:46:45;;;;;;;26.25;3.20;;;17.60;95.70;;;;;;5013200;28;20275;-73
2022/07/14 03:49:11;;;;;;;18.13;2.65;;;17.70;95.60;;;;;;5012716;28;20037;-74
2022/07/14 03:51:43;;;;;;;20.38;3.13;;;17.60;95.50;;;;;;5013016;28;20045;-75
2022/07/14 03:54:09;;;;;;;16.60;2.60;;;17.50;95.60;;;;;;5012966;28;20053;-75
2022/07/14 03:56:36;;;;;;;16.02;2.10;;;17.50;95.60;;;;;;5011647;28;20375;-74
2022/07/14 03:59:03;;;;;;;20.87;3.40;;;17.60;95.50;;;;;;5013010;28;20246;-73
2022/07/14 04:01:29;;;;;;;15.85;2.90;;;17.50;95.40;;;;;;5012828;28;20510;-73
2022/07/14 04:03:54;;;;;;;12.85;2.80;;;17.60;95.30;;;;;;5012618;28;20026;-74
2022/07/14 04:06:20;;;;;;;13.70;2.72;;;17.60;95.20;;;;;;5012812;28;20570;-74
2022/07/14 04:08:46;;;;;;;16.55;3.15;;;17.70;95.10;;;;;;5012460;28;20030;-75
2022/07/14 04:11:13;;;;;;;17.83;2.78;;;17.60;95.20;;;;;;5012305;28;20041;-73
2022/07/14 04:13:39;;;;;;;19.25;3.33;;;17.60;95.20;;;;;;5013039;28;20034;-74
2022/07/14 04:16:05;;;;;;;12.50;2.40;;;17.60;95.20;;;;;;5011177;28;20040;-74
2022/07/14 04:18:31;;;;;;;16.15;2.28;;;17.70;95.20;;;;;;5012187;28;20057;-74
2022/07/14 04:20:56;;;;;;;17.33;2.88;;;17.60;95.50;;;;;;5012159;28;20464;-73
2022/07/14 04:23:22;;;;;;;16.42;2.75;;;17.50;95.90;;;;;;5012007;28;20440;-73
2022/07/14 04:25:48;;;;;;;13.23;2.65;;;17.60;95.80;;;;;;5012549;28;20033;-74
2022/07/14 04:28:15;;;;;;;17.02;2.67;;;17.60;95.70;;;;;;5012223;28;20052;-72
2022/07/14 04:30:41;;;;;;;16.77;2.78;;;17.70;95.70;;;;;;5011189;28;20483;-74
2022/07/14 04:33:09;;;;;;;16.10;2.88;;;17.60;95.60;;;;;;5010894;28;20077;-74
2022/07/14 04:35:35;;;;;;;18.35;3.13;;;17.70;95.50;;;;;;5011909;28;20048;-74
2022/07/14 04:38:01;;;;;;;17.42;2.75;;;17.80;95.30;;;;;;5011264;28;20038;-74
2022/07/14 04:40:27;;;;;;;14.40;3.15;;;17.80;95.30;;;;;;5011615;28;20342;-73
2022/07/14 04:42:53;;;;;;;19.08;2.30;;;17.80;95.20;;;;;;5010737;28;20148;-74
2022/07/14 04:45:20;;;;;;;19.25;2.90;;;17.80;95.50;;;;;;5011713;28;20143;-74
2022/07/14 04:47:45;;;;;;;11.23;2.83;;;17.80;95.50;;;;;;5011605;28;20088;-73
2022/07/14 04:52:55;;;;;;;19.08;7.10;;;17.80;95.80;;;;;;5012193;28;20064;-73
2022/07/14 04:55:21;;;;;;;13.15;3.08;;;17.70;95.50;;;;;;5011450;28;20109;-73
2022/07/14 04:57:47;;;;;;;19.38;3.83;;;17.80;95.40;;;;;;5011163;28;20038;-73
2022/07/14 05:00:14;;;;;;;10.43;2.40;;;17.80;95.30;;;;;;5012206;28;20046;-73
2022/07/14 05:02:40;;;;;;;15.82;2.88;;;17.80;95.40;;;;;;5012863;28;20456;-73
2022/07/14 05:05:06;;;;;;;15.60;2.72;;;17.60;95.60;;;;;;5011175;28;20125;-73
2022/07/14 05:07:33;;;;;;;13.68;2.80;;;17.70;95.70;;;;;;5012386;28;20438;-73
2022/07/14 05:09:58;;;;;;;21.92;3.60;;;17.70;95.30;;;;;;5012090;28;20365;-73
2022/07/14 05:12:24;;;;;;;15.30;2.65;;;17.70;95.10;;;;;;5012108;28;20026;-74
2022/07/14 05:14:50;;;;;;;11.82;2.60;;;17.80;95.40;;;;;;5012478;28;20025;-74
2022/07/14 05:17:15;;;;;;;10.60;2.40;;;17.80;95.00;;;;;;5012085;28;20026;-73
2022/07/14 05:19:41;;;;;;;11.98;2.63;;;17.90;94.90;;;;;;5010983;28;20500;-75
2022/07/14 05:22:07;;;;;;;10.20;2.45;;;17.90;94.80;;;;;;5011954;28;20026;-74
2022/07/14 05:24:34;;;;;;;12.55;2.72;;;17.90;95.00;;;;;;5011603;28;20049;-74
2022/07/14 05:27:00;;;;;;;16.23;3.40;;;17.90;95.00;;;;;;5024523;28;20513;-74
2022/07/14 05:29:26;;;;;;;15.52;2.75;;;17.90;95.00;;;;;;5032088;28;20240;-71
2022/07/14 05:31:52;;;;;;;19.67;2.58;;;17.90;95.20;;;;;;5021475;28;20038;-74
2022/07/14 05:34:18;;;;;;;12.85;2.90;;;18.00;94.90;;;;;;5011403;28;20482;-73
2022/07/14 05:36:44;;;;;;;13.45;2.83;;;18.10;94.80;;;;;;5012667;28;20045;-74
2022/07/14 05:39:10;;;;;;;13.82;2.47;;;18.10;94.70;;;;;;5010730;28;20049;-72
2022/07/14 05:41:35;;;;;;;14.45;2.67;;;18.10;94.70;;;;;;5010995;28;20030;-70
2022/07/14 05:44:01;;;;;;;14.95;2.85;;;17.90;94.90;;;;;;5010912;28;20034;-70
2022/07/14 05:46:27;;;;;;;18.80;3.10;;;18.00;94.90;;;;;;5011233;28;20444;-71
2022/07/14 05:48:53;;;;;;;13.77;2.38;;;18.20;94.90;;;;;;5010109;28;20095;-69
2022/07/14 05:51:20;;;;;;;12.98;3.20;;;18.30;94.50;;;;;;5030157;28;20040;-70
2022/07/14 05:53:46;;;;;;;13.57;2.58;;;18.30;93.90;;;;;;5030893;28;20026;-70
2022/07/14 05:56:16;;;;;;;14.82;2.67;;;18.40;93.70;;;;;;5030367;28;20099;-69
2022/07/14 05:58:42;;;;;;;11.88;2.50;;;18.40;93.50;;;;;;5030051;28;20041;-71
2022/07/14 06:01:08;;;;;;;15.68;2.58;;;18.50;93.60;;;;;;5030230;28;20041;-70
2022/07/14 06:03:34;;;;;;;9.18;2.13;;;18.50;93.50;;;;;;5029197;28;20396;-70
2022/07/14 06:06:05;;;;;;;9.98;2.90;;;18.60;93.40;;;;;;5030346;28;20394;-70
2022/07/14 06:08:31;;;;;;;16.25;2.05;;;18.50;93.20;;;;;;5030861;28;20059;-70
2022/07/14 06:10:58;;;;;;;14.15;1.70;;;18.60;93.10;;;;;;5030249;28;20460;-71
2022/07/14 06:13:28;;;;;;;14.15;2.13;;;18.70;92.90;;;;;;5030359;28;20033;-69
2022/07/14 06:15:56;;;;;;;10.57;1.88;;;18.70;92.70;;;;;;5030149;28;20053;-70
2022/07/14 06:18:22;;;;;;;15.30;2.10;;;18.70;92.20;;;;;;5030328;28;20064;-70
2022/07/14 06:20:48;;;;;;;11.38;1.80;;;18.70;91.90;;;;;;5029632;28;20026;-70
2022/07/14 06:23:16;;;;;;;14.23;2.80;;;18.60;91.80;;;;;;5030297;28;20080;-70
2022/07/14 06:25:41;;;;;;;6.60;1.58;;;18.70;91.80;;;;;;5030016;28;20088;-70
2022/07/14 06:28:07;;;;;;;9.50;1.85;;;18.70;92.00;;;;;;5029005;28;20446;-70
2022/07/14 06:30:34;;;;;;;14.07;2.00;;;18.70;91.60;;;;;;5030016;28;20104;-71
2022/07/14 06:33:00;;;;;;;8.77;1.98;;;18.70;91.70;;;;;;5028884;28;20031;-70
2022/07/14 06:35:26;;;;;;;9.82;2.20;;;18.70;91.70;;;;;;5030581;28;20021;-70
2022/07/14 06:37:53;;;;;;;12.38;2.90;;;18.80;91.60;;;;;;5030056;28;20091;-70
2022/07/14 06:40:19;;;;;;;11.65;2.08;;;18.80;91.60;;;;;;5029771;28;20060;-70
2022/07/14 06:42:45;;;;;;;15.23;2.10;;;18.80;91.60;;;;;;5030245;28;20467;-70
2022/07/14 06:45:11;;;;;;;13.55;2.40;;;18.60;91.60;;;;;;5030077;28;20040;-70
2022/07/14 06:47:37;;;;;;;12.40;2.35;;;18.60;91.50;;;;;;5030586;28;20045;-70
2022/07/14 06:50:04;;;;;;;16.30;2.33;;;18.60;91.50;;;;;;5030040;28;20154;-70
2022/07/14 06:52:30;;;;;;;11.00;2.38;;;18.70;91.60;;;;;;5029297;28;20377;-69
2022/07/14 06:54:59;;;;;;;8.20;1.92;;;18.70;91.60;;;;;;5033289;28;20136;-71
2022/07/14 06:57:24;;;;;;;12.75;1.98;;;18.80;91.50;;;;;;5033086;28;20025;-71
2022/07/14 06:59:50;;;;;;;15.50;2.63;;;18.90;91.30;;;;;;5033817;28;20365;-70
2022/07/14 07:02:16;;;;;;;7.78;1.55;;;19.00;91.10;;;;;;5032585;28;20044;-70
2022/07/14 07:04:41;;;;;;;11.93;1.95;;;19.00;90.90;;;;;;5033631;28;20430;-71
2022/07/14 07:07:07;;;;;;;10.10;1.77;;;18.90;91.00;;;;;;5033655;28;20056;-70
2022/07/14 07:09:33;;;;;;;10.63;1.65;;;19.00;90.90;;;;;;5033534;28;20048;-70
2022/07/14 07:11:58;;;;;;;7.82;1.98;;;19.10;90.60;;;;;;5033623;28;20025;-70
2022/07/14 07:14:24;;;;;;;16.05;2.50;;;19.30;90.30;;;;;;5033769;28;20029;-70
2022/07/14 07:16:51;;;;;;;21.85;2.40;;;19.20;90.30;;;;;;5033162;28;20438;-71
2022/07/14 07:19:17;;;;;;;14.93;2.15;;;19.30;90.10;;;;;;5031922;28;20030;-70
2022/07/14 07:21:43;;;;;;;12.82;2.25;;;19.30;89.60;;;;;;5031833;28;20383;-70
2022/07/14 07:24:11;;;;;;;11.88;1.98;;;19.40;89.50;;;;;;5033128;28;20436;-70
2022/07/14 07:26:39;;;;;;;7.35;1.90;;;19.30;89.50;;;;;;5032582;28;20044;-70
2022/07/14 07:29:06;;;;;;;11.15;1.88;;;19.40;89.20;;;;;;5032963;28;20050;-70
2022/07/14 07:31:33;;;;;;;10.80;2.20;;;19.40;89.00;;;;;;5033008;28;20033;-69
2022/07/14 07:34:00;;;;;;;6.88;1.13;;;19.40;88.80;;;;;;5033082;28;20045;-70
2022/07/14 07:36:26;;;;;;;13.13;1.52;;;19.40;87.50;;;;;;5032684;28;20443;-70
2022/07/14 07:38:52;;;;;;;8.82;2.42;;;19.40;88.10;;;;;;5032665;28;20039;-68
2022/07/14 07:41:18;;;;;;;15.23;2.47;;;19.50;88.60;;;;;;5033344;28;20030;-70
2022/07/14 07:43:44;;;;;;;10.23;1.83;;;19.70;87.80;;;;;;5032702;28;20065;-70
2022/07/14 07:46:10;;;;;;;8.35;1.52;;;19.80;87.20;;;;;;5012959;28;20045;-71
2022/07/14 07:48:35;;;;;;;9.23;2.20;;;19.80;86.60;;;;;;5012212;28;20038;-70
2022/07/14 07:51:01;;;;;;;6.75;1.65;;;20.00;87.30;;;;;;5012554;28;20480;-70
2022/07/14 07:53:27;;;;;;;11.00;1.70;;;20.00;86.10;;;;;;5013143;28;20092;-70
2022/07/14 07:55:53;;;;;;;8.73;2.08;;;20.00;86.00;;;;;;5011868;28;20116;-70
2022/07/14 07:58:19;;;;;;;7.57;1.40;;;20.00;84.80;;;;;;5012533;28;20037;-70
2022/07/14 08:00:45;;;;;;;6.30;1.48;;;20.20;83.50;;;;;;5012559;28;20053;-70
2022/07/14 08:03:11;;;;;;;10.32;1.50;;;20.20;83.90;;;;;;5012519;28;20034;-70
2022/07/14 08:05:37;;;;;;;10.30;2.35;;;20.50;83.00;;;;;;5012771;28;20052;-70
2022/07/14 08:08:03;;;;;;;6.10;1.67;;;20.60;82.40;;;;;;5012630;28;20037;-70
2022/07/14 08:10:29;;;;;;;12.25;1.50;;;20.50;83.10;;;;;;5012695;28;20448;-70
2022/07/14 08:12:54;;;;;;;10.48;2.13;;;20.60;83.40;;;;;;5012881;28;20278;-69
2022/07/14 08:15:21;;;;;;;7.65;1.20;;;20.90;82.70;;;;;;5013221;28;20036;-68
2022/07/14 08:17:47;;;;;;;9.30;1.77;;;21.00;81.90;;;;;;5012784;28;20025;-70
2022/07/14 08:20:12;;;;;;;10.60;2.15;;;21.10;82.00;;;;;;5012231;28;20042;-70
2022/07/14 08:22:39;;;;;;;10.10;1.90;;;21.40;81.20;;;;;;5012194;28;20417;-71
2022/07/14 08:25:07;;;;;;;4.93;1.17;;;21.70;81.60;;;;;;5011066;28;20107;-69
2022/07/14 08:27:33;;;;;;;5.78;1.15;;;22.50;79.00;;;;;;5012151;28;20048;-69
2022/07/14 08:29:59;;;;;;;8.43;1.23;;;23.50;73.70;;;;;;5012188;28;20038;-69
2022/07/14 08:32:39;;;;;;;9.35;1.73;;;24.10;71.70;;;;;;5012510;28;20030;-69
2022/07/14 08:35:09;;;;;;;7.22;1.40;;;24.50;69.90;;;;;;5011856;28;20030;-70
2022/07/14 08:37:35;;;;;;;12.55;1.67;;;25.20;68.90;;;;;;5012135;28;20041;-68
2022/07/14 08:40:02;;;;;;;7.47;1.42;;;26.00;67.50;;;;;;5011802;28;20034;-69
2022/07/14 08:42:32;;;;;;;6.82;1.75;;;27.50;68.10;;;;;;5010840;28;20088;-70
2022/07/14 08:44:59;;;;;;;5.05;1.13;;;28.60;61.90;;;;;;5011739;28;20018;-72
2022/07/14 08:47:25;;;;;;;8.32;1.60;;;29.10;60.10;;;;;;5012289;28;20116;-72
2022/07/14 08:49:51;;;;;;;12.63;3.83;;;28.60;60.90;;;;;;5011837;28;20324;-71
2022/07/14 08:52:17;;;;;;;12.82;2.72;;;28.90;60.00;;;;;;5012003;28;20029;-70
2022/07/14 08:54:46;;;;;;;8.63;2.45;;;30.10;59.10;;;;;;5011537;28;20160;-70
2022/07/14 08:57:13;;;;;;;7.45;2.10;;;30.80;55.40;;;;;;5010389;28;20034;-69
2022/07/14 08:59:40;;;;;;;7.85;1.80;;;30.70;54.30;;;;;;5010904;28;20396;-69
2022/07/14 09:02:06;;;;;;;8.50;2.38;;;30.80;52.40;;;;;;5011838;28;20080;-69
2022/07/14 09:04:33;;;;;;;9.43;1.60;;;30.50;51.90;;;;;;5011614;28;20077;-70
2022/07/14 09:06:59;;;;;;;5.40;1.67;;;30.50;51.40;;;;;;5011619;28;20038;-69
2022/07/14 09:09:27;;;;;;;4.78;1.27;;;30.50;51.50;;;;;;5010477;28;20455;-70
2022/07/14 09:11:56;;;;;;;9.48;1.27;;;29.50;51.50;;;;;;5010253;28;20033;-68
2022/07/14 09:14:22;;;;;;;5.13;1.50;;;29.90;51.60;;;;;;5011952;28;20030;-70
2022/07/14 09:16:48;;;;;;;7.38;1.85;;;30.50;50.10;;;;;;5010973;28;20030;-69
2022/07/14 09:19:15;;;;;;;7.88;1.70;;;31.20;51.60;;;;;;5010441;28;20091;-72
2022/07/14 09:21:52;;;;;;;9.52;1.90;;;31.00;51.20;;;;;;5011408;28;20452;-73
2022/07/14 09:24:21;;;;;;;7.30;1.60;;;30.10;50.90;;;;;;5011830;28;20061;-72
2022/07/14 09:26:52;;;;;;;10.20;1.85;;;31.00;53.20;;;;;;5011779;28;20484;-72
2022/07/14 09:29:20;;;;;;;7.75;1.70;;;31.40;49.80;;;;;;5011407;28;20030;-72
2022/07/14 09:31:47;;;;;;;6.82;1.88;;;32.10;48.00;;;;;;5011225;28;20026;-72
2022/07/14 09:34:33;;;;;;;7.78;1.92;;;31.40;48.50;;;;;;5011266;28;20030;-72
2022/07/14 09:37:13;;;;;;;5.50;1.30;;;31.00;47.90;;;;;;5010067;28;20046;-72
2022/07/14 09:39:58;;;;;;;6.97;1.30;;;29.00;50.00;;;;;;5011135;28;20113;-72
2022/07/14 09:42:52;;;;;;;19.95;2.20;;;29.50;50.50;;;;;;5011083;28;20507;-72
2022/07/14 09:45:21;;;;;;;3.72;1.38;;;29.50;49.90;;;;;;5010480;28;20415;-71
2022/07/14 09:47:53;;;;;;;11.68;1.60;;;29.00;50.60;;;;;;5011306;28;20361;-74
2022/07/14 09:50:43;;;;;;;8.38;1.52;;;29.30;51.90;;;;;;5010938;28;20421;-73
2022/07/14 09:53:23;;;;;;;8.52;1.50;;;27.90;51.40;;;;;;5009572;28;20034;-73
2022/07/14 09:56:00;;;;;;;9.30;1.90;;;27.60;51.90;;;;;;5010451;28;20041;-73
2022/07/14 09:58:40;;;;;;;3.97;1.27;;;27.40;52.40;;;;;;5011039;28;20030;-73
2022/07/14 10:01:14;;;;;;;2.40;0.88;;;27.00;52.80;;;;;;5010938;28;20052;-73
2022/07/14 10:03:41;;;;;;;4.57;1.10;;;26.40;53.60;;;;;;5009608;28;20034;-73
2022/07/14 10:06:08;;;;;;;5.85;1.15;;;26.70;54.30;;;;;;5010633;28;20026;-73
2022/07/14 10:08:35;;;;;;;5.22;1.20;;;26.90;54.10;;;;;;5010507;28;20037;-72
2022/07/14 10:11:04;;;;;;;4.63;1.27;;;26.70;53.60;;;;;;5010644;28;20368;-73
2022/07/14 10:13:30;;;;;;;11.50;2.95;;;26.50;53.80;;;;;;5010734;28;20065;-74
2022/07/14 10:15:57;;;;;;;4.30;0.95;;;26.30;54.40;;;;;;5009660;28;20030;-72
2022/07/14 10:18:24;;;;;;;8.00;1.38;;;26.40;54.50;;;;;;5010691;28;20416;-73
2022/07/14 10:20:52;;;;;;;5.32;0.77;;;26.40;54.40;;;;;;5010766;28;20131;-73
2022/07/14 10:23:19;;;;;;;4.70;1.20;;;26.50;53.60;;;;;;5009147;28;20048;-73
2022/07/14 10:25:50;;;;;;;6.13;1.23;;;26.60;53.50;;;;;;5010364;28;20041;-72
2022/07/14 10:28:18;;;;;;;8.63;1.42;;;26.10;53.40;;;;;;5011967;28;20026;-73
2022/07/14 10:31:07;;;;;;;7.70;1.25;;;26.30;53.90;;;;;;5012931;28;20121;-74
2022/07/14 10:33:38;;;;;;;8.02;1.55;;;26.30;54.10;;;;;;5013956;28;20052;-73
2022/07/14 10:36:18;;;;;;;8.48;2.13;;;26.10;54.30;;;;;;5013989;28;20036;-72
2022/07/14 10:39:02;;;;;;;3.72;1.30;;;26.10;54.50;;;;;;5013351;28;20025;-72
2022/07/14 10:41:40;;;;;;;4.50;1.30;;;26.20;54.70;;;;;;5014119;28;20099;-72
2022/07/14 10:44:11;;;;;;;2.80;0.82;;;26.00;54.20;;;;;;5014237;28;20034;-72
2022/07/14 10:46:42;;;;;;;5.95;1.23;;;26.00;54.70;;;;;;5014079;28;20054;-73
2022/07/14 10:49:09;;;;;;;4.63;1.50;;;26.00;54.90;;;;;;5012839;28;20057;-71
2022/07/14 10:51:49;;;;;;;13.13;1.90;;;25.90;54.80;;;;;;5012953;28;20030;-72
2022/07/14 10:54:30;;;;;;;6.78;1.20;;;25.80;55.90;;;;;;5012572;28;20436;-72
2022/07/14 10:57:16;;;;;;;5.50;1.30;;;26.00;55.20;;;;;;5013667;28;20414;-72
2022/07/14 10:59:43;;;;;;;3.77;1.37;;;26.20;55.20;;;;;;5014082;28;20021;-74
2022/07/14 11:02:12;;;;;;;4.77;1.33;;;26.30;55.20;;;;;;5013841;28;20256;-74
2022/07/14 11:05:12;;;;;;;3.78;1.67;;;26.20;55.10;;;;;;5013875;28;20279;-76
2022/07/14 11:07:42;;;;;;;5.38;1.17;;;26.10;55.00;;;;;;5013765;28;20038;-73
2022/07/14 11:10:20;;;;;;;8.80;1.50;;;26.10;54.90;;;;;;5013909;28;20040;-74
2022/07/14 11:13:06;;;;;;;5.65;0.93;;;25.70;53.80;;;;;;5013609;28;20044;-73
2022/07/14 11:15:46;;;;;;;4.18;0.95;;;25.50;53.90;;;;;;5013266;28;20388;-73
2022/07/14 11:18:17;;;;;;;7.68;0.82;;;25.30;53.70;;;;;;5013869;28;20141;-74
2022/07/14 11:20:48;;;;;;;4.95;1.00;;;25.50;54.10;;;;;;5013823;28;20109;-72
2022/07/14 11:23:23;;;;;;;7.20;1.55;;;25.50;54.10;;;;;;5013286;28;20107;-72
2022/07/14 11:25:54;;;;;;;6.82;1.23;;;25.70;54.80;;;;;;5013755;28;20495;-74
2022/07/14 11:28:32;;;;;;;5.97;1.50;;;25.80;55.00;;;;;;5013060;28;20104;-74
2022/07/14 11:31:10;;;;;;;;;;;25.60;55.30;;;;;;5013765;28;20057;-74
2022/07/14 11:33:36;;;;;;;7.00;1.40;;;25.60;54.00;;;;;;5013571;28;19909;-72
2022/07/14 11:36:18;;;;;;;6.10;3.00;;;25.50;54.50;;;;;;5013702;28;20048;-71
2022/07/14 11:38:44;;;;;;;13.15;4.03;;;25.40;54.70;;;;;;5013933;28;20368;-73
2022/07/14 11:41:12;;;;;;;5.90;2.17;;;25.50;54.40;;;;;;5013214;28;20515;-73
2022/07/14 11:43:50;;;;;;;7.15;2.33;;;25.40;53.20;;;;;;5014602;28;20042;-72
2022/07/14 11:46:21;;;;;;;7.03;1.75;;;25.50;53.40;;;;;;5012526;28;20042;-75
2022/07/14 11:48:51;;;;;;;7.07;1.30;;;25.70;53.20;;;;;;5012970;28;20116;-72
2022/07/14 11:51:26;;;;;;;7.72;0.73;;;25.60;53.80;;;;;;5011805;28;20026;-72
2022/07/14 11:54:04;;;;;;;7.68;1.20;;;25.70;53.90;;;;;;5012781;28;20069;-72
2022/07/14 11:56:30;;;;;;;7.30;1.05;;;25.80;53.70;;;;;;5013194;28;20393;-72
2022/07/14 11:59:05;;;;;;;12.02;5.28;;;25.70;53.60;;;;;;5011590;28;20117;-71
2022/07/14 12:01:36;;;;;;;3.38;1.02;;;25.70;53.70;;;;;;5028023;28;20552;-73
2022/07/14 12:04:22;;;;;;;5.25;1.67;;;25.70;53.30;;;;;;5011397;28;20499;-73
2022/07/14 12:06:48;;;;;;;6.22;1.45;;;25.70;54.00;;;;;;5012325;28;20116;-73
2022/07/14 12:09:26;;;;;;;9.23;2.15;;;25.90;53.60;;;;;;5012578;28;20061;-73
2022/07/14 12:11:52;;;;;;;;;;;25.80;53.80;;;;;;5014092;28;20022;-72
2022/07/14 12:14:19;;;;;;;10.93;1.70;;;25.80;54.10;;;;;;5012224;28;19910;-73
2022/07/14 12:16:45;;;;;;;3.13;1.38;;;25.90;53.90;;;;;;5012320;28;20540;-73
2022/07/14 12:19:12;;;;;;;7.60;2.17;;;25.90;53.70;;;;;;5012287;28;20041;-73
2022/07/14 12:21:38;;;;;;;6.13;1.25;;;26.00;53.70;;;;;;5013016;28;20052;-73
2022/07/14 12:24:06;;;;;;;4.80;1.58;;;26.00;53.30;;;;;;5011931;28;20026;-74
2022/07/14 12:26:33;;;;;;;3.33;1.00;;;26.00;53.00;;;;;;5013029;28;20106;-73
2022/07/14 12:29:02;;;;;;;4.53;1.13;;;26.10;53.10;;;;;;5012217;28;20026;-72
2022/07/14 12:31:28;;;;;;;3.25;0.93;;;26.20;52.80;;;;;;5012233;28;20061;-74
2022/07/14 12:33:57;;;;;;;6.63;1.45;;;26.00;52.90;;;;;;5012108;28;20054;-71
2022/07/14 12:36:26;;;;;;;6.63;1.58;;;25.80;52.90;;;;;;5012144;28;20045;-72
2022/07/14 12:38:53;;;;;;;4.43;1.02;;;25.40;53.10;;;;;;5012035;28;20053;-72
2022/07/14 12:41:22;;;;;;;6.33;1.20;;;25.40;53.80;;;;;;5011910;28;20049;-71
2022/07/14 12:43:48;;;;;;;8.30;2.25;;;25.00;53.50;;;;;;5010513;28;20022;-72
2022/07/14 12:46:17;;;;;;;6.05;1.60;;;25.00;54.00;;;;;;5011852;28;20040;-73
2022/07/14 12:48:49;;;;;;;8.10;1.00;;;25.20;54.40;;;;;;5011986;28;20140;-73
2022/07/14 12:51:15;;;;;;;6.90;1.00;;;25.50;53.70;;;;;;5010899;28;20022;-72
2022/07/14 12:53:54;;;;;;;5.25;2.17;;;25.70;53.40;;;;;;5012064;28;20433;-73